AirNav   Everest Fuels
 
 529 users online  

4WA4 Windsock Airport
Lopez, Washington, USA

GOING TO LOPEZ?


FAA INFORMATION EFFECTIVE 16 JULY 2020

Location

FAA Identifier: 4WA4
Lat/Long: 48-32-29.3640N 122-53-14.6430W
48-32.489400N 122-53.244050W
48.5414900,-122.8874008
(estimated)
Elevation: 30 ft. / 9 m (estimated)
Variation: 21E (1985)
From city: 4 miles SW of LOPEZ, WA
Time zone: UTC -7 (UTC -8 during Standard Time)
Zip code: 98261

Airport Operations

Airport use: Private use. Permission required prior to landing
Activation date: 05/1975
Control tower: no
ARTCC: SEATTLE CENTER
FSS: SEATTLE FLIGHT SERVICE STATION
Attendance: CONTINUOUS
Wind indicator: yes
Segmented circle: yes
Landing fee: yes

Airport Communications

WX ASOS at FHR (6 nm W): 135.675 (360-378-8491)
WX AWOS-3 at ORS (10 nm N): 135.425 (360-376-6045)
WX AWOS-3 at BVS (19 nm E): 121.125 (360-757-7767)
WX AWOS-3 at OKH (19 nm SE): 132.775 (360-675-8431)

Nearby radio navigation aids

VOR radial/distance  VOR name  Freq  Var
CVVr321/19.0PENN COVE VOR/DME117.2019E
YYJr098/26.2VICTORIA VOR/DME113.7017E
HUHr187/27.1WHATCOM VORTAC113.0020E
YVRr145/33.8VANCOUVER VOR/DME115.9017E

 
NDB name  Hdg/Dist  Freq  Var  ID
FRIDAY HARBOR055/5.728417EFHR ..-. .... .-.
SKAGIT/BAY VIEW267/19.124016EBVS -... ...- ...
EDIZ HOOK023/31.733817ENOW -. --- .--

Airport Services

Runway Information

Runway 2/20

Dimensions: 1850 x 75 ft. / 564 x 23 m
Surface: turf
RUNWAY 2  RUNWAY 20
Traffic pattern: leftright
Obstructions: 4 ft. fence4 ft. fence, marked and lighted

Airport Ownership and Management from official FAA records

Ownership: Privately-owned
Owner: L DWIGHT LEWIS JR
200 DAISY LANE
LOPEZ ISLAND, WA 98261
Phone (360) 468-2412
Manager: L DWIGHT LEWIS JR
200 DAISY LANE
LOPEZ ISLAND, WA 98261
Phone (360) 468-2412

Airport Operational Statistics

Aircraft based on the field: 1
Single engine airplanes: 1
    

Additional Remarks

DEER MAY BE ON RWY.
FOR CD CTC SEATTLE ARTCC AT 253-351-3694.

Instrument Procedures

There are no published instrument procedures at 4WA4.

Some nearby airports with instrument procedures:

KFHR - Friday Harbor Airport (6 nm W)
KORS - Orcas Island Airport (10 nm N)
KNUW - Whidbey Island Naval Air Station (Ault Field) (15 nm SE)
KBVS - Skagit Regional Airport (19 nm E)
KOKH - AJ Eisenberg Airport (19 nm SE)
 
Loc | Ops | Rwys | IFR | FBO | Links
Com | Nav | Svcs | Stats | Notes
Area around 4WA4 (Windsock Airport)
 
Road maps at: MapQuest Bing Google
 
Aerial photo
WARNING: Photo may not be current or correct
Aerial photo of 4WA4 (Windsock Airport)
Do you have a better or more recent aerial photo of Windsock Airport that you would like to share? If so, please send us your photo.

 
Sectional chart

 
Airport distance calculator
Flying to Windsock Airport? Find the distance to fly.

From to 4WA4

Sunrise and sunset
Times for 06-Aug-2020
 Local
(UTC-7)
 Zulu
(UTC)
Morning civil twilight05:1912:19
Sunrise05:5512:55
Sunset20:3903:39
Evening civil twilight21:1504:15

Current date and time
Zulu (UTC)  06-Aug-2020 10:49:22
Local (UTC-7)  06-Aug-2020 03:49:22
 
METAR
KFHR 
6nm W 
061009Z AUTO 19008KT 10SM BKN029 OVC035 17/13 A2983 RMK AO2 T01670133
KORS 
10nm N 
061035Z AUTO 17013G19KT 10SM 17/14 A2979 RMK AO2
KNUW 
15nm SE 
060956Z 13008KT 10SM SCT038 BKN055 BKN090 17/13 A2986 RMK AO2 SLP112 T01670128
CWYJ 
17nm W 
061000Z AUTO 18003KT 15/13 RMK AO1 SLP100 T01480133 50001
CWLM 
19nm SW 
061000Z AUTO 17010KT 14/13 RMK AO1 PK WND 19018/0902 SLP098 T01440128 58001
CYWH 
19nm SW 
060200Z 24018KT 15SM FEW230 19/13 A2981 RMK CI2 LAST STFD OBS/NEXT 061400Z SLP096 DENSITY ALT 600FT
KBVS 
19nm E 
061035Z AUTO 00000KT 10SM SCT024 BKN034 OVC065 16/14 A2984 RMK A01
TAF
KNUW 
15nm SE 
0607/0707 19009KT 9999 VCSH SCT030 BKN065 BKN120 BKN250 QNH2986INS TEMPO 0607/0612 BKN025 BKN060 OVC120 FM061200 19009KT 9999 -SHRA SCT010 BKN025 OVC060 QNH2985INS TEMPO 0612/0618 23012KT 9000 -SHRA BR BKN008 OVC020 BECMG 0618/0619 25012G18KT 9999 NSW FEW015 SCT030 BKN060 QNH2988INS TEMPO 0623/0705 25018G28KT FM070500 23009KT 9999 SCT025 BKN060 QNH2999INS T14/0613Z T20/0622Z FS30165
CYWH 
19nm SW 
052038Z 0521/0602 22012KT P6SM FEW230 RMK NXT FCST WILL BE ISSUED AT 061515Z
NOTAMs
Click for the latest NOTAMs
NOTAMs are issued by the DoD/FAA and will open in a separate window not controlled by AirNav.

 

 
 

Would you like to see your business listed on this page?

 If your business provides an interesting product or service to pilots, flight crews, aircraft, or users of the Windsock Airport, you should consider listing it here.  To start the listing process, click on the button below
 
Add a business
 

Other Pages about Windsock Airport

Update a link
 
Copyright © AirNav, LLC. All rights reserved. Privacy Policy  Contact